Latest Coastal Weather Observations for Low Head

IDT60701

Issued at 7:42 pm EST Monday 25 May 2015 (issued every 10 minutes, with the page automatically refreshed every 10 minutes)

About coastal observations | Map of coastal stations | Coastal observations for TAS | Marine services | Other Formats
Station Details ID: 091293 Name: LOW HEAD Lat: -41.05 Lon: 146.79 Height: 3.0 m
Data from the previous 72 hours. | See also: Recent months at Low Head
Date/Time
EST
Temp

°C
Wind Pressure Rain
since 9am
mm
Weather Cloud Vis
km
Sea
Height
m
Swell
Dir
 
Speed
knots
Gust
knots
hPa Trend Height
m
Period
s
Dir
25/07:30pm 11.3 SW 3 7 1027.9 - 0.0 - - - - - - -
25/07:00pm 10.6 ENE 5 6 1027.6 - 0.0 - - - - - - -
25/06:30pm 10.3 ESE 4 6 1027.6 - 0.0 - - - - - - -
25/06:00pm 10.6 E 4 5 1027.5 - 0.0 - - - - - - -
25/05:30pm 11.2 CALM 0 0 1027.5 - 0.0 - - - - - - -
25/05:00pm 11.0 CALM 0 0 1027.4 - 0.0 - - - - - - -
25/04:30pm 11.8 CALM 0 0 1027.4 - 0.0 - - - - - - -
25/04:00pm 11.7 CALM 0 0 1027.5 - 0.0 - - - - - - -
25/03:30pm 12.6 NW 2 4 1027.5 - 0.0 - - - - - - -
25/03:00pm 12.6 CALM 0 0 1027.4 - 0.0 - - - - - - -
25/02:30pm 13.0 NW 2 4 1027.5 - 0.0 - - - - - - -
25/02:00pm 12.3 CALM 0 2 1027.7 - 0.0 - - - - - - -
25/01:30pm 11.2 S 4 5 1027.8 - 0.0 - - - - - - -
25/01:00pm 10.5 SSE 5 6 1028.1 - 0.0 - - - - - - -
25/12:30pm 10.3 S 6 8 1028.6 - 0.0 - - - - - - -
25/12:00pm 10.1 SSE 6 8 1028.9 - 0.0 - - - - - - -
25/11:30am 9.8 SSE 7 10 1029.3 - 0.0 - - - - - - -
25/11:00am 9.5 SSE 8 9 1029.7 - 0.0 - - - - - - -
25/10:30am 9.0 S 9 11 1029.9 - 0.0 - - - - - - -
25/10:00am 8.2 SSE 9 11 1029.9 - 0.0 - - - - - - -
25/09:30am 7.1 SSE 9 13 1029.9 - 0.0 - - - - - - -
25/09:00am 6.7 SSE 9 13 1029.8 - 0.0 - - - - - - -
25/08:30am 6.1 SSE 9 12 1029.8 - 0.0 - - - - - - -
25/08:00am 6.1 SSE 9 13 1029.6 - 0.0 - - - - - - -
25/07:30am 5.7 SSE 10 13 1029.4 - 0.0 - - - - - - -
25/07:00am 6.0 SSE 10 13 1029.6 - 0.0 - - - - - - -
25/06:30am 6.1 SSE 8 11 1029.3 - 0.0 - - - - - - -
25/06:00am 6.3 SSE 7 10 1029.2 - 0.0 - - - - - - -
25/05:30am 7.9 SSW 6 8 1029.1 - 0.0 - - - - - - -
25/05:00am 7.5 SSW 6 9 1029.0 - 0.0 - - - - - - -
25/04:30am 8.6 SW 8 9 1028.9 - 0.0 - - - - - - -
25/04:00am 8.7 SW 9 11 1028.7 - 0.0 - - - - - - -
25/03:30am 9.0 WSW 12 14 1028.8 - 0.0 - - - - - - -
25/03:00am 9.3 W 13 16 1029.0 - 0.0 - - - - - - -
25/02:30am 9.5 WSW 13 15 1029.2 - 0.0 - - - - - - -
25/02:00am 9.8 WSW 13 17 1029.0 - 0.0 - - - - - - -
25/01:30am 10.6 W 19 22 1028.8 - 0.0 - - - - - - -
25/01:00am 10.5 W 16 20 1029.0 - 0.0 - - - - - - -
25/12:30am 10.4 W 16 19 1029.1 - 0.0 - - - - - - -
25/12:00am 10.6 W 17 19 1029.3 - 0.0 - - - - - - -
 
Date/Time
EST
Temp

°C
Wind Pressure Rain
since 9am
mm
Weather Cloud Vis
km
Sea
Height
m
Swell
Dir
 
Speed
knots
Gust
knots
hPa Trend Height
m
Period
s
Dir
24/11:30pm 11.2 W 16 20 1029.2 - 0.0 - - - - - - -
24/11:00pm 11.6 WNW 14 18 1029.2 - 0.0 - - - - - - -
24/10:30pm 11.8 WNW 13 16 1029.3 - 0.0 - - - - - - -
24/10:00pm 11.9 WNW 11 15 1029.3 - 0.0 - - - - - - -
24/09:30pm 11.9 WNW 12 16 1029.4 - 0.0 - - - - - - -
24/09:00pm 11.6 WNW 10 14 1029.2 - 0.0 - - - - - - -
24/08:30pm 11.5 W 7 12 1029.0 - 0.0 - - - - - - -
24/08:00pm 11.5 W 10 12 1029.1 - 0.0 - - - - - - -
24/07:30pm 11.2 WNW 10 12 1029.2 - 0.0 - - - - - - -
24/07:00pm 11.2 WNW 7 11 1029.2 - 0.0 - - - - - - -
24/06:30pm 11.3 WNW 7 11 1029.2 - 0.0 - - - - - - -
24/06:00pm 11.3 WNW 6 13 1029.1 - 0.0 - - - - - - -
24/05:30pm 11.3 WNW 7 9 1028.9 - 0.0 - - - - - - -
24/05:00pm 10.9 NNW 2 3 1028.4 - 0.0 - - - - - - -
24/04:30pm 11.1 NW 3 5 1028.7 - 0.0 - - - - - - -
24/04:00pm 11.4 NNW 5 7 1028.9 - 0.0 - - - - - - -
24/03:30pm 11.4 NW 6 7 1028.9 - 0.0 - - - - - - -
24/03:00pm 11.7 NNW 7 9 1028.9 - 0.0 - - - - - - -
24/02:30pm 12.6 NW 5 6 1028.8 - 0.0 - - - - - - -
24/02:00pm 12.6 W 3 5 1029.0 - 0.0 - - - - - - -
24/01:30pm 11.4 SSW 3 4 1029.1 - 0.0 - - - - - - -
24/01:00pm 10.7 S 5 6 1029.3 - 0.0 - - - - - - -
24/12:30pm 9.9 S 7 8 1029.5 - 0.0 - - - - - - -
24/12:00pm 9.4 S 8 9 1029.8 - 0.0 - - - - - - -
24/11:30am 8.7 S 11 13 1030.3 - 0.0 - - - - - - -
24/11:00am 7.7 S 11 13 1030.4 - 0.0 - - - - - - -
24/10:30am 6.7 S 11 13 1030.6 - 0.0 - - - - - - -
24/10:00am 5.7 S 12 15 1030.6 - 0.0 - - - - - - -
24/09:30am 5.4 S 13 16 1030.4 - 0.0 - - - - - - -
24/09:00am 4.9 S 13 16 1030.2 - 0.0 - - - - - - -
24/08:30am 4.6 S 13 16 1029.9 - 0.0 - - - - - - -
24/08:00am 4.6 S 14 16 1029.8 - 0.0 - - - - - - -
24/07:30am 4.4 SSE 13 16 1029.6 - 0.0 - - - - - - -
24/07:00am 4.6 SSE 13 16 1029.6 - 0.0 - - - - - - -
24/06:30am 4.7 SSE 13 17 1029.3 - 0.0 - - - - - - -
24/06:00am 4.6 SSE 12 15 1029.1 - 0.0 - - - - - - -
24/05:30am 5.1 SSE 12 16 1029.0 - 0.0 - - - - - - -
24/05:00am 4.8 SSE 13 15 1028.9 - 0.0 - - - - - - -
24/04:30am 4.8 SSE 12 15 1028.7 - 0.0 - - - - - - -
24/04:00am 5.4 SSE 13 16 1028.7 - 0.0 - - - - - - -
24/03:30am 5.4 SSE 12 16 1028.6 - 0.0 - - - - - - -
24/03:00am 5.8 S 14 16 1028.6 - 0.0 - - - - - - -
24/02:30am 5.8 SSE 13 16 1028.9 - 0.0 - - - - - - -
24/02:00am 5.9 S 14 16 1028.8 - 0.0 - - - - - - -
24/01:30am 5.7 SSE 12 15 1028.7 - 0.0 - - - - - - -
24/01:00am 5.7 SSE 11 12 1028.9 - 0.0 - - - - - - -
24/12:30am 5.0 SSE 11 12 1029.1 - 0.0 - - - - - - -
24/12:00am 5.2 SE 6 8 1029.1 - 0.0 - - - - - - -
 
Date/Time
EST
Temp

°C
Wind Pressure Rain
since 9am
mm
Weather Cloud Vis
km
Sea
Height
m
Swell
Dir
 
Speed
knots
Gust
knots
hPa Trend Height
m
Period
s
Dir
23/11:30pm 5.6 ESE 7 11 1028.9 - 0.0 - - - - - - -
23/11:00pm 6.4 SSE 12 14 1028.7 - 0.0 - - - - - - -
23/10:30pm 7.0 SSE 11 13 1028.8 - 0.0 - - - - - - -
23/10:00pm 7.1 S 11 14 1028.8 - 0.0 - - - - - - -
23/09:30pm 7.0 SSE 11 13 1028.7 - 0.0 - - - - - - -
23/09:00pm 7.7 S 9 11 1028.7 - 0.0 - - - - - - -
23/08:30pm 7.7 SSE 10 12 1028.5 - 0.0 - - - - - - -
23/08:00pm 7.7 SSE 8 9 1028.3 - 0.0 - - - - - - -
23/07:30pm 7.6 SE 8 11 1028.4 - 0.0 - - - - - - -
23/07:00pm 8.2 SSE 7 8 1028.2 - 0.0 - - - - - - -
23/06:30pm 9.5 S 7 10 1027.9 - 0.0 - - - - - - -
23/06:00pm 9.9 SE 3 5 1027.9 - 0.0 - - - - - - -
23/05:30pm 10.5 SE 6 7 1027.9 - 0.0 - - - - - - -
23/05:00pm 10.7 CALM 0 0 1027.7 - 0.0 - - - - - - -
23/04:30pm 11.5 CALM 0 0 1027.8 - 0.0 - - - - - - -
23/04:00pm 11.9 CALM 0 0 1027.7 - 0.0 - - - - - - -
23/03:30pm 11.9 CALM 0 0 1027.8 - 0.0 - - - - - - -
23/03:00pm 12.0 CALM 0 0 1027.8 - 0.0 - - - - - - -
23/02:30pm 12.9 CALM 0 3 1027.9 - 0.0 - - - - - - -
23/02:00pm 12.8 NW 4 5 1028.1 - 0.0 - - - - - - -
23/01:30pm 11.3 WSW 3 4 1028.2 - 0.0 - - - - - - -
23/01:00pm 10.6 SSW 3 4 1028.1 - 0.0 - - - - - - -
23/12:30pm 10.1 S 6 7 1028.3 - 0.0 - - - - - - -
23/12:00pm 9.5 SSW 6 8 1028.6 - 0.0 - - - - - - -
23/11:30am 8.5 S 8 10 1029.0 - 0.0 - - - - - - -
23/11:00am 7.8 SSW 10 12 1029.5 - 0.0 - - - - - - -
23/10:30am 7.1 S 11 13 1029.4 - 0.0 - - - - - - -
23/10:00am 6.7 S 10 13 1029.3 - 0.0 - - - - - - -
23/09:30am 6.0 S 11 15 1029.4 - 0.0 - - - - - - -
23/09:00am 4.8 SSE 13 15 1029.2 - 0.2 - - - - - - -
23/08:30am 4.8 S 13 15 1028.9 - 0.2 - - - - - - -
23/08:00am 4.4 SSE 13 17 1028.8 - 0.2 - - - - - - -
23/07:30am 4.5 S 13 16 1028.6 - 0.2 - - - - - - -
23/07:00am 4.2 S 11 14 1028.3 - 0.2 - - - - - - -
23/06:30am 4.5 SSE 12 15 1028.2 - 0.2 - - - - - - -
23/06:00am 4.4 S 12 14 1027.8 - 0.2 Rain - - - - - -
23/05:30am 4.9 S 12 14 1027.7 - 0.0 - - - - - - -
23/05:00am 5.4 S 13 14 1027.5 - 0.0 - - - - - - -
23/04:30am 5.0 SSE 11 14 1027.5 - 0.0 - - - - - - -
23/04:00am 5.4 S 13 14 1027.3 - 0.0 - - - - - - -
23/03:30am 5.6 SSE 10 12 1027.6 - 0.0 - - - - - - -
23/03:00am 6.1 S 10 12 1027.4 - 0.0 - - - - - - -
23/02:30am 5.5 S 10 12 1027.5 - 0.0 - - - - - - -
23/02:00am 5.9 S 11 13 1027.5 - 0.0 - - - - - - -
23/01:30am 5.9 SSE 11 13 1027.5 - 0.0 - - - - - - -
23/01:00am 5.6 SSE 11 13 1027.5 - 0.0 - - - - - - -
23/12:30am 5.5 SSE 11 13 1027.6 - 0.0 - - - - - - -
23/12:00am 5.9 SSE 10 11 1027.7 - 0.0 - - - - - - -
 
Date/Time
EST
Temp

°C
Wind Pressure Rain
since 9am
mm
Weather Cloud Vis
km
Sea
Height
m
Swell
Dir
 
Speed
knots
Gust
knots
hPa Trend Height
m
Period
s
Dir
22/11:30pm 5.9 S 8 11 1027.8 - 0.0 - - - - - - -
22/11:00pm 6.3 S 9 11 1027.7 - 0.0 - - - - - - -
22/10:30pm 6.2 SSE 8 10 1027.7 - 0.0 - - - - - - -
22/10:00pm 6.2 SSE 8 11 1027.8 - 0.0 - - - - - - -
22/09:30pm 7.0 SE 6 9 1027.7 - 0.0 - - - - - - -
22/09:00pm 6.9 SSE 7 9 1027.7 - 0.0 - - - - - - -
22/08:30pm 7.1 SSE 7 8 1027.6 - 0.0 - - - - - - -
22/08:00pm 7.6 SE 5 7 1027.5 - 0.0 - - - - - - -

Other Formats:

Comma delimited format used in spreadsheet applications
http://www.bom.gov.au/fwo/IDT60701/IDT60701.95964.axf

JavaScript Object Notation format (JSON) in row-major order
http://www.bom.gov.au/fwo/IDT60701/IDT60701.95964.json